^^
Datos históricos de la estación: Murcia-Puente Tocinos
Diario Informe para Febrero 2, 2019 Unidades:  Métrico    Ingés   Ambas
Diario Semanal Mensual Anual
  Máxima: Mínima: Promedio:
Temperatura: 22.4 °C 12.4 °C 16.9 °C
Punto de rocio: 12.7 °C 8 °C 11.2 °C
Humedad: 94% 40.1% 72%
Velocidad viento: 16.1km/h 0km/h 5.5km/h
Racha viento: 29.6km/h - -
Viento- - Sur
Presión: 1015.8 hPa 1010.1 hPa -
Precipitación: 0.0 mm    
 
 
Tabla de datos para Febrero 2, 2019
Hora Temperatura Punto de rocio Presión Viento Velocidad viento Racha viento Humedad Intensidad lluvia(por hora) Nubes
00:04 14.1 °C 12.5 °C 1015.7 hPa NE 5 km/h 8.4 km/h 90% 0.0 mm
00:09 14.1 °C 12.5 °C 1015.7 hPa NE 4.9 km/h 8 km/h 90% 0.0 mm
00:14 14.1 °C 12.5 °C 1015.7 hPa NE 4.7 km/h 9.3 km/h 90% 0.0 mm
00:19 14.1 °C 12.5 °C 1015.8 hPa NE 4.7 km/h 9.7 km/h 90% 0.0 mm
00:24 14.1 °C 12.5 °C 1015.8 hPa NE 4.7 km/h 10.3 km/h 90% 0.0 mm
00:29 14 °C 12.4 °C 1015.8 hPa NE 5.2 km/h 11.3 km/h 90% 0.0 mm
00:34 14 °C 12.4 °C 1015.8 hPa NE 5.8 km/h 11.3 km/h 90% 0.0 mm
00:39 14 °C 12.4 °C 1015.7 hPa NNE 6.3 km/h 11.3 km/h 90% 0.0 mm
00:44 13.9 °C 12.3 °C 1015.7 hPa NNE 6.9 km/h 9.7 km/h 90% 0.0 mm
00:49 13.9 °C 12.4 °C 1015.8 hPa NE 6.1 km/h 8.4 km/h 90.4% 0.0 mm
00:54 13.9 °C 12.4 °C 1015.8 hPa NE 5 km/h 8.4 km/h 91% 0.0 mm
00:59 13.9 °C 12.4 °C 1015.8 hPa NE 4.8 km/h 8 km/h 91% 0.0 mm
01:04 13.9 °C 12.4 °C 1015.8 hPa NE 4.6 km/h 8 km/h 91% 0.0 mm
01:09 13.9 °C 12.4 °C 1015.7 hPa NE 4.4 km/h 9.5 km/h 91% 0.0 mm
01:14 13.9 °C 12.4 °C 1015.7 hPa NE 3.9 km/h 9.7 km/h 91% 0.0 mm
01:19 13.9 °C 12.4 °C 1015.7 hPa NE 4.2 km/h 9.7 km/h 91% 0.0 mm
01:24 13.9 °C 12.4 °C 1015.7 hPa NE 4.7 km/h 8 km/h 91% 0.0 mm
01:29 13.9 °C 12.4 °C 1015.7 hPa NE 4 km/h 8 km/h 91% 0.0 mm
01:34 13.9 °C 12.3 °C 1015.7 hPa ENE 3.2 km/h 6.4 km/h 90.2% 0.0 mm
01:39 13.9 °C 12.3 °C 1015.7 hPa Este 3.1 km/h 6.4 km/h 90% 0.0 mm
01:44 14 °C 12.4 °C 1015.7 hPa Este 2.9 km/h   90% 0.0 mm
01:49 14 °C 12.4 °C 1015.7 hPa Este 1.7 km/h   90% 0.0 mm
01:54 14 °C 12.3 °C 1015.7 hPa Calm     89.2% 0.0 mm
01:59 14.1 °C 12.4 °C 1015.7 hPa Calm   3.9 km/h 89.7% 0.0 mm
02:04 14.1 °C 12.5 °C 1015.8 hPa Calm   6.4 km/h 90% 0.0 mm
02:09 14 °C 12.4 °C 1015.8 hPa North 1.4 km/h 8 km/h 90% 0.0 mm
02:14 14 °C 12.4 °C 1015.8 hPa North 3.2 km/h 8 km/h 90% 0.0 mm
02:19 14 °C 12.4 °C 1015.8 hPa North 3.2 km/h 6.4 km/h 90% 0.0 mm
02:24 14 °C 12.4 °C 1015.7 hPa North 3.2 km/h 6.4 km/h 90.1% 0.0 mm
02:29 14 °C 12.6 °C 1015.7 hPa North 2.8 km/h 7.4 km/h 90.8% 0.0 mm
02:34 14 °C 12.6 °C 1015.8 hPa North 2.2 km/h 8 km/h 91% 0.0 mm
02:39 14 °C 12.6 °C 1015.8 hPa North 2.5 km/h 5.6 km/h 91% 0.0 mm
02:44 14.1 °C 12.6 °C 1015.8 hPa North 2.9 km/h 4.8 km/h 91% 0.0 mm
02:49 14.1 °C 12.6 °C 1015.8 hPa North 1.7 km/h   91% 0.0 mm
02:54 14.1 °C 12.7 °C 1015.6 hPa Calm     91% 0.0 mm
02:59 14.1 °C 12.7 °C 1015.6 hPa Calm     91% 0.0 mm
03:04 14.1 °C 12.7 °C 1015.6 hPa Calm     91% 0.0 mm
03:09 14.1 °C 12.6 °C 1015.5 hPa Calm   5.8 km/h 91% 0.0 mm
03:14 14 °C 12.5 °C 1015.5 hPa Calm   6.4 km/h 91% 0.0 mm
03:19 14 °C 12.5 °C 1015.5 hPa Calm   3.2 km/h 91% 0.0 mm
03:24 13.9 °C 12.5 °C 1015.2 hPa Calm     90.9% 0.0 mm
03:29 13.9 °C 12.3 °C 1015.2 hPa Calm     90% 0.0 mm
03:34 13.9 °C 12.3 °C 1015.2 hPa Calm   7.4 km/h 90% 0.0 mm
03:39 13.9 °C 12.3 °C 1015.2 hPa ENE 1.3 km/h 8 km/h 90.2% 0.0 mm
03:44 13.9 °C 12.4 °C 1015.2 hPa ENE 2.9 km/h 7.4 km/h 91% 0.0 mm
03:49 13.8 °C 12.3 °C 1015.2 hPa ENE 2.6 km/h 8 km/h 91% 0.0 mm
03:54 13.8 °C 12.3 °C 1015.1 hPa ENE 2.2 km/h   91% 0.0 mm
03:59 13.8 °C 12.3 °C 1015.1 hPa ENE 1.2 km/h   91% 0.0 mm
04:04 13.8 °C 12.4 °C 1015.1 hPa Calm     91% 0.0 mm
04:09 13.9 °C 12.4 °C 1015.0 hPa Calm     91% 0.0 mm
04:14 13.9 °C 12.4 °C 1015.0 hPa Calm     91% 0.0 mm
04:19 13.9 °C 12.4 °C 1015.0 hPa Calm     91% 0.0 mm
04:24 13.9 °C 12.4 °C 1014.9 hPa Calm     91% 0.0 mm
04:29 13.9 °C 12.4 °C 1014.9 hPa Calm     91% 0.0 mm
04:34 13.9 °C 12.4 °C 1014.9 hPa Calm     91% 0.0 mm
04:39 13.9 °C 12.4 °C 1014.9 hPa Calm   6.4 km/h 91% 0.0 mm
04:44 13.9 °C 12.4 °C 1014.9 hPa Calm   8 km/h 91% 0.0 mm
04:49 13.8 °C 12.4 °C 1014.9 hPa SSE 1.6 km/h 9.5 km/h 91% 0.0 mm
04:54 13.8 °C 12.3 °C 1014.8 hPa SSO 3.9 km/h 10 km/h 91% 0.0 mm
04:59 13.8 °C 12.3 °C 1014.8 hPa SSO 5.1 km/h 9.7 km/h 90.8% 0.0 mm
05:04 13.7 °C 12.1 °C 1014.8 hPa SSO 6.5 km/h 9.7 km/h 90% 0.0 mm
05:09 13.7 °C 12.1 °C 1014.6 hPa SSO 6.2 km/h 9.7 km/h 90% 0.0 mm
05:14 13.7 °C 12.1 °C 1014.6 hPa SSO 5.8 km/h 9.7 km/h 90% 0.0 mm
05:19 13.7 °C 12.1 °C 1014.6 hPa SSO 5.3 km/h 8 km/h 90% 0.0 mm
05:24 13.6 °C 12 °C 1014.6 hPa SSO 4.7 km/h 8 km/h 90.1% 0.0 mm
05:29 13.6 °C 12.1 °C 1014.6 hPa Sur 4.8 km/h 8.4 km/h 90.7% 0.0 mm
05:34 13.5 °C 12.1 °C 1014.7 hPa Sur 5 km/h 9.3 km/h 91% 0.0 mm
05:39 13.4 °C 12 °C 1014.7 hPa Sur 5.3 km/h 9.7 km/h 91% 0.0 mm
05:44 13.4 °C 11.9 °C 1014.7 hPa Sur 5.8 km/h 8.4 km/h 91% 0.0 mm
05:49 13.4 °C 11.9 °C 1014.7 hPa Sur 5.4 km/h 8 km/h 91% 0.0 mm
05:54 13.4 °C 12 °C 1014.7 hPa SSO 5 km/h 8 km/h 91.5% 0.0 mm
05:59 13.3 °C 12 °C 1014.7 hPa SSO 4.5 km/h 8 km/h 92% 0.0 mm
06:04 13.3 °C 12 °C 1014.7 hPa Sur 3.9 km/h 8 km/h 92% 0.0 mm
06:09 13.3 °C 12 °C 1014.4 hPa Sur 4.2 km/h 9.3 km/h 92% 0.0 mm
06:14 13.3 °C 12 °C 1014.4 hPa Sur 4.7 km/h 9.7 km/h 92% 0.0 mm
06:19 13.3 °C 12 °C 1014.4 hPa Sur 4.8 km/h 9.7 km/h 92% 0.0 mm
06:24 13.3 °C 12 °C 1014.4 hPa Sur 5 km/h 9.5 km/h 92% 0.0 mm
06:29 13.2 °C 11.9 °C 1014.4 hPa Sur 5.3 km/h 10 km/h 91.5% 0.0 mm
06:34 13.2 °C 11.8 °C 1014.5 hPa Sur 5.8 km/h 9.7 km/h 91% 0.0 mm
06:39 13.2 °C 11.8 °C 1014.5 hPa Sur 6.1 km/h 9.7 km/h 91% 0.0 mm
06:44 13.2 °C 11.7 °C 1014.5 hPa Sur 6.5 km/h 9.7 km/h 91% 0.0 mm
06:49 13.2 °C 11.7 °C 1014.5 hPa Sur 6.5 km/h 9.7 km/h 91% 0.0 mm
06:54 13.2 °C 11.8 °C 1014.3 hPa Sur 6.5 km/h 10 km/h 91% 0.0 mm
06:59 13.2 °C 11.8 °C 1014.3 hPa SSO 6.5 km/h 9.7 km/h 91% 0.0 mm
07:04 13.2 °C 11.8 °C 1014.4 hPa Sur 6.5 km/h 10 km/h 91% 0.0 mm
07:09 13.3 °C 11.9 °C 1014.4 hPa SSO 6.5 km/h 10 km/h 91% 0.0 mm
07:14 13.4 °C 11.9 °C 1014.4 hPa Sur 6.5 km/h 10 km/h 90.6% 0.0 mm
07:19 13.4 °C 11.8 °C 1014.5 hPa SSE 6.2 km/h 9.7 km/h 90% 0.0 mm
07:24 13.4 °C 11.8 °C 1014.5 hPa Sur 5.8 km/h 10 km/h 90% 0.0 mm
07:29 13.4 °C 11.8 °C 1014.5 hPa Sur 5.3 km/h 9.7 km/h 90% 0.0 mm
07:34 13.4 °C 11.8 °C 1014.5 hPa SSO 4.7 km/h 8.4 km/h 90% 0.0 mm
07:39 13.4 °C 11.8 °C 1014.4 hPa SSO 4.3 km/h 8 km/h 90% 0.0 mm
07:44 13.3 °C 11.6 °C 1014.4 hPa SSO 3.9 km/h 8 km/h 89.2% 0.0 mm
07:49 13.1 °C 11.4 °C 1014.5 hPa SSO 3.5 km/h 5.8 km/h 89% 0.0 mm
07:54 12.8 °C 11.1 °C 1014.5 hPa SSO 2.9 km/h 6.4 km/h 89.3% 0.0 mm
07:59 12.6 °C 11.1 °C 1014.5 hPa SSO 3.1 km/h 6.4 km/h 90.2% 0.0 mm
08:04 12.5 °C 11 °C 1014.7 hPa SSO 3.2 km/h 4.8 km/h 91% 0.0 mm
08:09 12.4 °C 10.9 °C 1014.7 hPa SSO 1.8 km/h 3.2 km/h 91% 0.0 mm
08:14 12.4 °C 11.1 °C 1014.7 hPa Calm   3.7 km/h 91.9% 0.0 mm
08:19 12.4 °C 11.1 °C 1014.8 hPa Calm   3.7 km/h 92% 0.0 mm
08:24 12.4 °C 11.1 °C 1014.8 hPa Calm   7.4 km/h 92% 0.0 mm
08:29 12.4 °C 11.1 °C 1014.8 hPa SSO 1.2 km/h 8 km/h 92% 0.0 mm
08:34 12.5 °C 11.2 °C 1014.9 hPa SSO 2.9 km/h 8 km/h 92% 0.0 mm
08:39 12.5 °C 11.4 °C 1014.9 hPa SSO 2.9 km/h 5.6 km/h 92.9% 0.0 mm
08:44 12.6 °C 11.5 °C 1014.9 hPa SSO 2.9 km/h 4.8 km/h 93% 0.0 mm
08:49 12.6 °C 11.5 °C 1014.9 hPa SSO 1.7 km/h 3.7 km/h 93% 0.0 mm
08:54 12.7 °C 11.6 °C 1014.9 hPa Calm   4.7 km/h 93% 0.0 mm
08:59 12.8 °C 11.7 °C 1014.9 hPa SSO 1.1 km/h 5.6 km/h 93% 0.0 mm
09:04 12.8 °C 11.9 °C 1015.0 hPa SSO 2.2 km/h 4.8 km/h 94% 0.0 mm
09:09 12.9 °C 11.9 °C 1015.0 hPa SSO 2.2 km/h 5.6 km/h 93.5% 0.0 mm
09:14 13.1 °C 12 °C 1015.0 hPa SSO 2.2 km/h 6.4 km/h 93.1% 0.0 mm
09:19 13.2 °C 12.1 °C 1015.0 hPa Sur 2.6 km/h 8.4 km/h 93% 0.0 mm
09:24 13.2 °C 12.1 °C 1015.0 hPa SSO 3.2 km/h 8 km/h 93% 0.0 mm
09:29 13.3 °C 12.1 °C 1015.0 hPa Sur 4 km/h 8.4 km/h 92.5% 0.0 mm
09:34 13.4 °C 12.1 °C 1015.0 hPa SSO 5 km/h 10 km/h 92% 0.0 mm
09:39 13.5 °C 12.2 °C 1014.9 hPa Sur 5 km/h 9.7 km/h 92% 0.0 mm
09:44 13.7 °C 12.3 °C 1014.9 hPa SSO 5 km/h 8 km/h 91.3% 0.0 mm
09:49 13.9 °C 12.3 °C 1015.0 hPa Oeste 4.5 km/h 9.3 km/h 90.4% 0.0 mm
09:54 13.9 °C 12.2 °C 1015.0 hPa Oeste 3.9 km/h 9.7 km/h 89.8% 0.0 mm
09:59 13.9 °C 12.1 °C 1015.0 hPa Oeste 4.2 km/h 8.7 km/h 89% 0.0 mm
10:04 14 °C 12.2 °C 1015.0 hPa OSO 4.6 km/h 9.7 km/h 88.3% 0.0 mm
10:09 14.1 °C 12.2 °C 1015.0 hPa ONO 4.7 km/h 9.7 km/h 88% 0.0 mm
10:14 14.2 °C 12.2 °C 1015.0 hPa NO 4.7 km/h 8 km/h 88% 0.0 mm
10:19 14.2 °C 12.2 °C 1015.0 hPa ONO 3.9 km/h 8 km/h 87.7% 0.0 mm
10:24 14.3 °C 12.1 °C 1015.0 hPa Oeste 2.9 km/h 8.4 km/h 86.8% 0.0 mm
10:29 14.4 °C 12.1 °C 1015.0 hPa SO 3.6 km/h 10 km/h 85.9% 0.0 mm
10:34 14.5 °C 12.1 °C 1015.2 hPa SSO 4.7 km/h 9.7 km/h 85.3% 0.0 mm
10:39 14.7 °C 12.1 °C 1015.2 hPa SSO 5.1 km/h 13 km/h 84.5% 0.0 mm
10:44 14.7 °C 11.9 °C 1015.2 hPa OSO 5.8 km/h 12.9 km/h 83.1% 0.0 mm
10:49 14.8 °C 11.9 °C 1015.2 hPa OSO 6.1 km/h 11.3 km/h 83% 0.0 mm
10:54 14.9 °C 12 °C 1015.2 hPa SO 6.5 km/h 8.4 km/h 82.4% 0.0 mm
10:59 15.2 °C 12.1 °C 1015.2 hPa SO 5.2 km/h 8 km/h 82% 0.0 mm
11:04 15.3 °C 12.1 °C 1015.2 hPa ONO 3.9 km/h 8 km/h 81.3% 0.0 mm
11:09 15.5 °C 12.2 °C 1015.2 hPa ONO 3.2 km/h 7.6 km/h 80.9% 0.0 mm
11:14 15.8 °C 12.3 °C 1015.2 hPa ENE 2.2 km/h 8.7 km/h 79.9% 0.0 mm
11:19 16 °C 12.2 °C 1015.2 hPa Oeste 2.9 km/h 10.3 km/h 78.1% 0.0 mm
11:24 16.1 °C 12.1 °C 1015.2 hPa Sur 3.9 km/h 11.1 km/h 77.4% 0.0 mm
11:29 16.2 °C 12.2 °C 1015.2 hPa SO 4.7 km/h 11.3 km/h 76.8% 0.0 mm
11:34 16.3 °C 11.9 °C 1015.2 hPa Oeste 5.8 km/h 11.1 km/h 75.4% 0.0 mm
11:39 16.4 °C 12.1 °C 1015.2 hPa SSO 5.4 km/h 11.3 km/h 75.9% 0.0 mm
11:44 16.6 °C 12.3 °C 1015.2 hPa Sur 5 km/h 11.3 km/h 75.5% 0.0 mm
11:49 16.8 °C 12.3 °C 1015.2 hPa OSO 4.9 km/h 9.7 km/h 74.5% 0.0 mm
11:54 17.1 °C 12.2 °C 1015.0 hPa OSO 4.7 km/h 10.3 km/h 73.2% 0.0 mm
11:59 17.1 °C 12 °C 1015.0 hPa OSO 4.8 km/h 11.3 km/h 72.2% 0.0 mm
12:04 17.2 °C 12 °C 1015.1 hPa OSO 5 km/h 15.6 km/h 71.7% 0.0 mm
12:09 17.3 °C 11.9 °C 1015.1 hPa OSO 5.3 km/h 16.1 km/h 70.3% 0.0 mm
12:14 17.6 °C 12.1 °C 1015.1 hPa OSO 5.8 km/h 11.1 km/h 69.8% 0.0 mm
12:19 17.8 °C 11.7 °C 1015.1 hPa OSO 5.4 km/h 11.3 km/h 67.4% 0.0 mm
12:24 17.9 °C 11.7 °C 1015.0 hPa SSO 4.7 km/h 11.3 km/h 67% 0.0 mm
12:29 18.1 °C 11.6 °C 1015.0 hPa SSO 4.8 km/h 13 km/h 66% 0.0 mm
12:34 18.2 °C 11.6 °C 1015.0 hPa SE 5 km/h 12.9 km/h 65.2% 0.0 mm
12:39 18.7 °C 11.6 °C 1014.9 hPa SSE 4.5 km/h 9.7 km/h 63.6% 0.0 mm
12:44 18.8 °C 11.6 °C 1014.9 hPa SSO 3.9 km/h 9.7 km/h 62.7% 0.0 mm
12:49 18.9 °C 11.1 °C 1014.9 hPa Oeste 3.9 km/h 9.7 km/h 60.6% 0.0 mm
12:54 18.9 °C 10.6 °C 1014.8 hPa SO 3.9 km/h 11.1 km/h 58.5% 0.0 mm
12:59 19.1 °C 10.7 °C 1014.8 hPa SSO 3.9 km/h 11.3 km/h 58.3% 0.0 mm
13:04 19.3 °C 10.8 °C 1014.8 hPa ONO 3.9 km/h 13 km/h 58% 0.0 mm
13:09 19.3 °C 10.5 °C 1014.5 hPa SO 5.1 km/h 16.7 km/h 56.9% 0.0 mm
13:14 19.4 °C 10.4 °C 1014.5 hPa SO 6.9 km/h 16.1 km/h 56% 0.0 mm
13:19 19.6 °C 10.4 °C 1014.5 hPa OSO 6.5 km/h 13.7 km/h 55.5% 0.0 mm
13:24 19.7 °C 10.6 °C 1014.4 hPa Oeste 5.8 km/h 14.5 km/h 55.5% 0.0 mm
13:29 19.8 °C 10.4 °C 1014.4 hPa OSO 6 km/h 13 km/h 54.9% 0.0 mm
13:34 19.7 °C 10.5 °C 1014.4 hPa ONO 6.5 km/h 13.7 km/h 55.5% 0.0 mm
13:39 19.7 °C 10.6 °C 1014.2 hPa NNO 6.9 km/h 14.5 km/h 55.6% 0.0 mm
13:44 19.9 °C 10.7 °C 1014.2 hPa NE 7.6 km/h 11.3 km/h 55.4% 0.0 mm
13:49 20.2 °C 10.7 °C 1014.2 hPa OSO 6.4 km/h 13 km/h 54.5% 0.0 mm
13:54 20.2 °C 10.6 °C 1013.9 hPa ONO 4.7 km/h 14.8 km/h 53.7% 0.0 mm
13:59 20.2 °C 10.5 °C 1013.9 hPa NNO 6.6 km/h 14.8 km/h 53.5% 0.0 mm
14:04 20.2 °C 9.9 °C 1013.9 hPa NO 8.7 km/h 16.1 km/h 51.6% 0.0 mm
14:09 20.2 °C 9.2 °C 1013.6 hPa ONO 8.6 km/h 19 km/h 49.3% 0.0 mm
14:14 20.1 °C 9 °C 1013.6 hPa ONO 8.4 km/h 19.3 km/h 49% 0.0 mm
14:19 20.3 °C 9.4 °C 1013.6 hPa NO 8 km/h 18.5 km/h 49.5% 0.0 mm
14:24 20.5 °C 9.7 °C 1013.2 hPa SO 7.6 km/h 19.3 km/h 49.7% 0.0 mm
14:29 20.6 °C 9.5 °C 1013.2 hPa SSE 7.6 km/h 14.5 km/h 49% 0.0 mm
14:34 20.7 °C 9.5 °C 1013.2 hPa SO 7.6 km/h 14.5 km/h 48.7% 0.0 mm
14:39 20.9 °C 9.5 °C 1013.1 hPa SE 7.6 km/h 13 km/h 47.8% 0.0 mm
14:44 21.2 °C 9.5 °C 1013.1 hPa ONO 7.6 km/h 12.9 km/h 47.3% 0.0 mm
14:49 21.5 °C 9.4 °C 1013.1 hPa Oeste 6.3 km/h 14.8 km/h 46.1% 0.0 mm
14:54 21.5 °C 9.4 °C 1012.7 hPa SSO 4.7 km/h 14.8 km/h 46% 0.0 mm
14:59 21.7 °C 9.1 °C 1012.7 hPa SSE 5.2 km/h 14.5 km/h 44.8% 0.0 mm
15:04 21.7 °C 8.7 °C 1012.7 hPa Oeste 5.8 km/h 17.2 km/h 43.2% 0.0 mm
15:09 21.6 °C 8.7 °C 1012.5 hPa Sur 6.5 km/h 17.7 km/h 43.6% 0.0 mm
15:14 21.5 °C 8.9 °C 1012.5 hPa SSO 7.6 km/h 20.9 km/h 44.7% 0.0 mm
15:19 21.3 °C 8.8 °C 1012.5 hPa SO 9.1 km/h 20.9 km/h 44.8% 0.0 mm
15:24 21.4 °C 8.9 °C 1012.2 hPa OSO 11.1 km/h 14.8 km/h 44.8% 0.0 mm
15:29 21.7 °C 8.4 °C 1012.2 hPa Sur 10.1 km/h 17.2 km/h 42.6% 0.0 mm
15:34 21.9 °C 8.4 °C 1012.2 hPa Sur 8.7 km/h 17.7 km/h 42% 0.0 mm
15:39 22.2 °C 8 °C 1012.0 hPa Sur 9 km/h 24.5 km/h 40.1% 0.0 mm
15:44 22.2 °C 8.2 °C 1012.0 hPa SSO 9.5 km/h 24.1 km/h 40.7% 0.0 mm
15:49 22.1 °C 8.2 °C 1012.0 hPa Sur 9 km/h 16.7 km/h 41.1% 0.0 mm
15:54 22.1 °C 8.1 °C 1011.8 hPa SO 8.4 km/h 16.1 km/h 40.7% 0.0 mm
15:59 22.3 °C 8.4 °C 1011.8 hPa SO 8.5 km/h 16.7 km/h 40.9% 0.0 mm
16:04 22.3 °C 8.2 °C 1011.8 hPa SSO 8.7 km/h 18 km/h 40.4% 0.0 mm
16:09 22.3 °C 8.4 °C 1011.6 hPa SSO 8.6 km/h 17.7 km/h 40.8% 0.0 mm
16:14 22.4 °C 8.5 °C 1011.6 hPa SO 8.4 km/h 17.2 km/h 41% 0.0 mm
16:19 22.2 °C 8.5 °C 1011.6 hPa OSO 8.5 km/h 17.7 km/h 41.3% 0.0 mm
16:24 22.2 °C 8.5 °C 1011.5 hPa OSO 8.7 km/h 19 km/h 41.7% 0.0 mm
16:29 22.3 °C 8.6 °C 1011.5 hPa Sur 8.7 km/h 20.4 km/h 41.6% 0.0 mm
16:34 22.3 °C 8.6 °C 1011.5 hPa Sur 8.7 km/h 20.9 km/h 41.5% 0.0 mm
16:39 22.3 °C 9.4 °C 1011.3 hPa Sur 9 km/h 25.1 km/h 43.9% 0.0 mm
16:44 21.9 °C 11 °C 1011.3 hPa Sur 9.5 km/h 25.9 km/h 49.9% 0.0 mm
16:49 21.5 °C 11.1 °C 1011.3 hPa Sur 11.9 km/h 25.7 km/h 51.6% 0.0 mm
16:54 21.4 °C 11.3 °C 1011.2 hPa SSE 15.6 km/h 25.9 km/h 52.6% 0.0 mm
16:59 21.2 °C 11.1 °C 1011.2 hPa SSE 15.2 km/h 25.7 km/h 52.6% 0.0 mm
17:04 21.3 °C 11.2 °C 1011.2 hPa SSE 14.8 km/h 29.6 km/h 52.9% 0.0 mm
17:09 21.1 °C 11.1 °C 1011.0 hPa SSE 15.3 km/h 29 km/h 52.7% 0.0 mm
17:14 21.1 °C 10.9 °C 1011.0 hPa SSE 16.1 km/h 25.7 km/h 52.2% 0.0 mm
17:19 21.2 °C 10.8 °C 1011.0 hPa Sur 15.2 km/h 25.7 km/h 51.6% 0.0 mm
17:24 21.2 °C 10.8 °C 1010.9 hPa SSE 14 km/h 24.1 km/h 51.5% 0.0 mm
17:29 21.3 °C 10.8 °C 1010.9 hPa SSO 14 km/h 24.1 km/h 51.2% 0.0 mm
17:34 21.5 °C 10.7 °C 1010.9 hPa Sur 14 km/h 19.3 km/h 50.3% 0.0 mm
17:39 21.6 °C 10.8 °C 1010.8 hPa SSE 13.3 km/h 22.2 km/h 50% 0.0 mm
17:44 21.6 °C 10.8 °C 1010.8 hPa SSE 12.2 km/h 22.5 km/h 50.5% 0.0 mm
17:49 21.4 °C 10.6 °C 1010.8 hPa Sur 12.6 km/h 20.9 km/h 50.2% 0.0 mm
17:54 21.6 °C 10.7 °C 1010.6 hPa Sur 13 km/h 17.7 km/h 50% 0.0 mm
17:59 21.7 °C 10.5 °C 1010.6 hPa Sur 11.6 km/h 18.5 km/h 49.1% 0.0 mm
18:04 21.8 °C 10.4 °C 1010.6 hPa Sur 10 km/h 19.3 km/h 48.2% 0.0 mm
18:09 21.8 °C 10.2 °C 1010.4 hPa SSE 9.4 km/h 16.1 km/h 47.5% 0.0 mm
18:14 21.8 °C 10.1 °C 1010.4 hPa SSE 8.7 km/h 12.9 km/h 47.4% 0.0 mm
18:19 22 °C 10 °C 1010.4 hPa SSE 8.2 km/h 13 km/h 46.4% 0.0 mm
18:24 22.2 °C 10.3 °C 1010.3 hPa SSE 7.6 km/h 14.8 km/h 46.9% 0.0 mm
18:29 22.3 °C 10.2 °C 1010.3 hPa Sur 8.1 km/h 14.5 km/h 46% 0.0 mm
18:34 22.3 °C 10.1 °C 1010.3 hPa SE 8.7 km/h 14.5 km/h 46% 0.0 mm
18:39 22.2 °C 10 °C 1010.2 hPa Este 7.5 km/h 11.3 km/h 46% 0.0 mm
18:44 22.3 °C 10.4 °C 1010.2 hPa SSO 5.8 km/h 22.2 km/h 46.9% 0.0 mm
18:49 22.2 °C 10.8 °C 1010.2 hPa SSE 7.5 km/h 22.5 km/h 48.3% 0.0 mm
18:54 22 °C 10.8 °C 1010.1 hPa Sur 10 km/h 20.9 km/h 49% 0.0 mm
18:59 21.9 °C 10.6 °C 1010.1 hPa Sur 10.9 km/h 20.9 km/h 48.8% 0.0 mm
19:04 21.8 °C 10.7 °C 1010.1 hPa SSE 11.9 km/h 20.1 km/h 49.2% 0.0 mm
19:09 21.7 °C 10.9 °C 1010.1 hPa SSE 11.9 km/h 20.9 km/h 50.2% 0.0 mm
19:14 21.7 °C 10.8 °C 1010.1 hPa SSE 11.9 km/h 20.9 km/h 50.2% 0.0 mm
19:19 21.6 °C 11.1 °C 1010.2 hPa SE 12 km/h 19.3 km/h 51.5% 0.0 mm
19:24 21.5 °C 11.2 °C 1010.2 hPa SE 12.2 km/h 19.3 km/h 52% 0.0 mm
19:29 21.3 °C 10.9 °C 1010.2 hPa SE 11.4 km/h 22.2 km/h 51.6% 0.0 mm
19:34 21 °C 10.9 °C 1010.4 hPa SE 10.3 km/h 22.5 km/h 52.6% 0.0 mm
19:39 20.8 °C 10.8 °C 1010.4 hPa SE 11.1 km/h 20.9 km/h 53% 0.0 mm
19:44 20.6 °C 10.8 °C 1010.4 hPa SSE 12.2 km/h 19.3 km/h 53.2% 0.0 mm
19:49 20.5 °C 10.7 °C 1010.4 hPa SSE 12.1 km/h 19.3 km/h 53.4% 0.0 mm
19:54 20.3 °C 10.8 °C 1010.4 hPa ESE 11.9 km/h 17.7 km/h 54.3% 0.0 mm
19:59 20.2 °C 10.8 °C 1010.4 hPa ESE 10.2 km/h 14.5 km/h 55% 0.0 mm
20:04 19.9 °C 10.8 °C 1010.6 hPa ESE 8.4 km/h 12.9 km/h 56% 0.0 mm
20:09 19.8 °C 10.8 °C 1010.6 hPa SE 7.6 km/h 11.3 km/h 56% 0.0 mm
20:14 19.8 °C 10.8 °C 1010.6 hPa SE 6.5 km/h 11.3 km/h 56.1% 0.0 mm
20:19 19.7 °C 10.6 °C 1010.6 hPa SE 6.7 km/h 11.3 km/h 56% 0.0 mm
20:24 19.6 °C 10.7 °C 1010.5 hPa Sur 6.9 km/h 11.3 km/h 56.4% 0.0 mm
20:29 19.6 °C 10.4 °C 1010.5 hPa Sur 6.5 km/h 14.8 km/h 55.6% 0.0 mm
20:34 19.6 °C 9.6 °C 1010.6 hPa Sur 5.8 km/h 14.5 km/h 52.5% 0.0 mm
20:39 19.6 °C 9.4 °C 1010.6 hPa SSO 6.5 km/h 12.9 km/h 51.7% 0.0 mm
20:44 19.6 °C 9.3 °C 1010.6 hPa SSO 7.6 km/h 13 km/h 51.6% 0.0 mm
20:49 19.5 °C 8.9 °C 1010.8 hPa SO 6.8 km/h 13 km/h 50.4% 0.0 mm
20:54 19.4 °C 8.6 °C 1010.8 hPa SO 5.8 km/h 14.8 km/h 49.5% 0.0 mm
20:59 19.4 °C 8.8 °C 1010.8 hPa SSO 6.6 km/h 14.5 km/h 50.1% 0.0 mm
21:04 19.4 °C 9.1 °C 1010.9 hPa SO 7.6 km/h 9.7 km/h 51.4% 0.0 mm
21:09 19.4 °C 9.8 °C 1010.9 hPa SO 7.1 km/h 11.9 km/h 53.7% 0.0 mm
21:14 19.3 °C 10.2 °C 1010.9 hPa SO 6.5 km/h 11.3 km/h 55.7% 0.0 mm
21:19 19.1 °C 10.2 °C 1010.9 hPa SO 7.3 km/h 14.8 km/h 56.5% 0.0 mm
21:24 18.9 °C 10.2 °C 1010.9 hPa SO 8.4 km/h 14.5 km/h 57% 0.0 mm
21:29 18.8 °C 10.2 °C 1010.9 hPa SO 7.3 km/h 9.7 km/h 57.5% 0.0 mm
21:34 18.8 °C 10.3 °C 1011.2 hPa Oeste 5.8 km/h 9.7 km/h 58% 0.0 mm
21:39 18.7 °C 10.3 °C 1011.2 hPa ONO 4.8 km/h 7.4 km/h 58% 0.0 mm
21:44 18.6 °C 10.4 °C 1011.2 hPa Oeste 3.2 km/h 9.3 km/h 58.9% 0.0 mm
21:49 18.5 °C 10.4 °C 1011.4 hPa SO 3.2 km/h 9.7 km/h 59% 0.0 mm
21:54 18.4 °C 10.4 °C 1011.4 hPa SSO 3.2 km/h 8 km/h 59.6% 0.0 mm
21:59 18.4 °C 10.5 °C 1011.4 hPa SO 3.5 km/h 8 km/h 60% 0.0 mm
22:04 18.3 °C 10.6 °C 1011.5 hPa SO 3.9 km/h 8 km/h 60.5% 0.0 mm
22:09 18.3 °C 10.6 °C 1011.5 hPa SO 3.2 km/h 3.2 km/h 60.7% 0.0 mm
22:14 18.2 °C 10.6 °C 1011.5 hPa SO 2.2 km/h   61% 0.0 mm
22:19 18.2 °C 10.4 °C 1011.7 hPa SO 1.3 km/h   60.8% 0.0 mm
22:24 18.1 °C 10.4 °C 1011.7 hPa Calm     61% 0.0 mm
22:29 17.9 °C 10.3 °C 1011.7 hPa Calm     61% 0.0 mm
22:34 17.9 °C 10.4 °C 1011.7 hPa Calm   5.6 km/h 61.5% 0.0 mm
22:39 17.8 °C 10.6 °C 1011.6 hPa NNO 0.9 km/h 7.4 km/h 62.5% 0.0 mm
22:44 17.7 °C 10.7 °C 1011.6 hPa NNO 2.2 km/h 8 km/h 63.7% 0.0 mm
22:49 17.5 °C 11 °C 1012.0 hPa NNO 2.6 km/h 9.3 km/h 65.6% 0.0 mm
22:54 17.3 °C 11.2 °C 1012.0 hPa NNO 3.2 km/h 11.1 km/h 67.3% 0.0 mm
22:59 17.1 °C 11.3 °C 1012.0 hPa NO 4.4 km/h 11.3 km/h 68.7% 0.0 mm
23:04 16.9 °C 11.2 °C 1012.0 hPa NO 5.8 km/h 8 km/h 69% 0.0 mm
23:09 16.9 °C 11.2 °C 1012.0 hPa NO 4.3 km/h 4.8 km/h 69% 0.0 mm
23:14 16.9 °C 11.2 °C 1012.0 hPa NO 2.2 km/h   69% 0.0 mm
23:19 16.9 °C 11.3 °C 1012.1 hPa NO 1.3 km/h 7.6 km/h 69.6% 0.0 mm
23:24 16.9 °C 11.2 °C 1012.1 hPa Calm   13.7 km/h 69.1% 0.0 mm
23:29 16.8 °C 11.2 °C 1012.1 hPa ENE 2.9 km/h 16.1 km/h 69.6% 0.0 mm
23:34 16.6 °C 11.5 °C 1012.1 hPa ENE 6.9 km/h 16.1 km/h 71.8% 0.0 mm
23:39 16.3 °C 11.6 °C 1012.1 hPa ENE 6.9 km/h 13.7 km/h 73.5% 0.0 mm
23:44 16.2 °C 11.8 °C 1012.1 hPa ENE 6.9 km/h 14.5 km/h 74.9% 0.0 mm
23:49 16.1 °C 11.9 °C 1012.1 hPa NE 6.7 km/h 13 km/h 76.5% 0.0 mm
23:54 16 °C 12.1 °C 1012.1 hPa NE 6.5 km/h 13.7 km/h 77.7% 0.0 mm
23:59 16 °C 12.2 °C 1012.1 hPa NE 7 km/h 14.8 km/h 78% 0.0 mm
Murcia-Puente Tocinos, España
Compliments of Weather Underground - 3 mb

La estación de MeteoMurcia.com, publica sus datos en los siguientes proyectos:

Weather Underground PWS IMURCIAP2 Meteoclimatic www.awekas.at

W3Counter
Web Analytics